createdAt,value
2023-03-03T00:04:11.785Z,29.33
2023-03-03T00:09:14.763Z,31.77
2023-03-03T00:14:23.212Z,31.20
2023-03-03T00:19:27.456Z,32.20
2023-03-03T00:24:38.401Z,28.70
2023-03-03T00:29:46.968Z,29.03
2023-03-03T00:34:51.828Z,31.37
2023-03-03T00:39:55.308Z,30.00
2023-03-03T00:44:59.336Z,31.97
2023-03-03T00:50:26.933Z,29.90
2023-03-03T00:55:30.675Z,31.13
2023-03-03T01:00:34.434Z,31.23
2023-03-03T01:05:40.058Z,39.00
2023-03-03T01:10:47.025Z,32.87
2023-03-03T01:15:50.050Z,34.50
2023-03-03T01:20:54.411Z,30.10
2023-03-03T01:25:57.441Z,29.80
2023-03-03T01:31:02.295Z,38.03
2023-03-03T01:36:07.947Z,38.60
2023-03-03T01:41:10.875Z,33.20
2023-03-03T01:46:42.120Z,35.80
2023-03-03T01:51:51.757Z,34.63
2023-03-03T01:56:59.698Z,39.33
2023-03-03T02:02:02.718Z,30.07
2023-03-03T02:07:11.102Z,27.73
2023-03-03T02:12:18.000Z,29.37
2023-03-03T02:17:21.282Z,27.70
2023-03-03T02:22:40.247Z,25.23
2023-03-03T02:27:44.697Z,25.60
2023-03-03T02:32:48.549Z,25.80
2023-03-03T02:37:51.586Z,26.23
2023-03-03T02:42:59.496Z,25.10
2023-03-03T02:48:02.522Z,24.50
2023-03-03T02:53:05.501Z,23.00
2023-03-03T02:58:10.730Z,22.20
2023-03-03T03:03:13.719Z,21.10
2023-03-03T03:08:16.823Z,20.50
2023-03-03T03:13:21.210Z,21.17
2023-03-03T03:18:25.205Z,22.60
2023-03-03T03:23:30.629Z,20.70
2023-03-03T03:28:36.006Z,19.93
2023-03-03T03:33:38.947Z,20.90
2023-03-03T03:38:43.200Z,24.07
2023-03-03T03:43:48.632Z,23.80
2023-03-03T03:48:52.168Z,23.83
2023-03-03T03:53:57.642Z,22.47
2023-03-03T03:59:01.955Z,21.37
2023-03-03T04:04:05.384Z,21.10
2023-03-03T04:09:08.927Z,22.73
2023-03-03T04:14:13.323Z,20.23
2023-03-03T04:19:16.465Z,22.50
2023-03-03T04:24:20.436Z,23.13
2023-03-03T04:29:27.827Z,22.40
2023-03-03T04:34:31.461Z,23.27
2023-03-03T04:39:34.499Z,21.40
2023-03-03T04:44:39.174Z,23.20
2023-03-03T04:49:42.847Z,22.83
2023-03-03T04:54:46.152Z,22.33
2023-03-03T04:59:51.530Z,21.83
2023-03-03T05:04:55.285Z,22.10
2023-03-03T05:09:58.210Z,21.13
2023-03-03T05:15:02.750Z,20.70
2023-03-03T05:20:08.443Z,21.97
2023-03-03T05:25:12.767Z,23.10
2023-03-03T05:30:17.284Z,21.10
2023-03-03T05:35:20.761Z,22.60
2023-03-03T05:40:23.885Z,20.80
2023-03-03T05:45:28.236Z,19.30
2023-03-03T05:50:31.371Z,21.47
2023-03-03T05:55:34.468Z,21.97
2023-03-03T06:00:39.027Z,21.10
2023-03-03T06:05:41.981Z,20.70
2023-03-03T06:10:45.138Z,20.87
2023-03-03T06:15:51.835Z,21.23
2023-03-03T06:20:55.212Z,19.00
2023-03-03T06:25:58.177Z,21.87
2023-03-03T06:31:02.631Z,21.90
2023-03-03T06:36:05.999Z,22.83
2023-03-03T06:41:08.997Z,21.17
2023-03-03T06:46:13.387Z,21.63
2023-03-03T06:51:24.568Z,21.80
2023-03-03T06:56:28.320Z,20.47
2023-03-03T07:01:37.944Z,21.90
2023-03-03T07:06:40.912Z,19.97
2023-03-03T07:11:46.250Z,20.67
2023-03-03T07:16:57.874Z,21.30
2023-03-03T07:22:03.294Z,21.27
2023-03-03T07:27:13.605Z,21.10
2023-03-03T07:32:39.167Z,19.87
2023-03-03T07:37:43.918Z,21.47
2023-03-03T07:42:46.889Z,21.23
2023-03-03T07:48:21.286Z,20.53
2023-03-03T07:53:29.056Z,24.27
2023-03-03T07:58:38.549Z,23.63
2023-03-03T08:03:44.896Z,22.67
2023-03-03T08:08:47.798Z,23.67
2023-03-03T08:13:50.673Z,20.33
2023-03-03T08:18:55.414Z,22.10
2023-03-03T08:23:58.349Z,19.27
2023-03-03T08:29:01.277Z,20.33
2023-03-03T08:34:05.624Z,20.40
2023-03-03T08:39:09.390Z,20.23
2023-03-03T08:44:12.660Z,20.40
2023-03-03T08:49:17.084Z,19.30
2023-03-03T08:54:20.103Z,21.23
2023-03-03T08:59:23.264Z,20.00
2023-03-03T09:04:27.626Z,19.30
2023-03-03T09:09:30.670Z,17.13
2023-03-03T09:14:33.545Z,17.57
2023-03-03T09:19:38.532Z,16.27
2023-03-03T09:24:43.815Z,15.97
2023-03-03T09:29:47.057Z,14.40
2023-03-03T09:34:52.343Z,13.50
2023-03-03T09:39:57.485Z,11.93
2023-03-03T09:45:37.245Z,12.90
2023-03-03T09:50:54.513Z,12.20
2023-03-03T09:56:04.513Z,11.70
2023-03-03T10:01:26.086Z,10.57
2023-03-03T10:06:37.120Z,10.60
2023-03-03T10:11:51.968Z,10.13
2023-03-03T10:17:17.109Z,9.20
2023-03-03T10:22:28.615Z,8.80
2023-03-03T10:27:56.528Z,9.37
2023-03-03T10:33:03.381Z,7.80
2023-03-03T10:38:45.741Z,8.10
2023-03-03T10:44:01.914Z,8.13
2023-03-03T10:49:34.758Z,7.90
2023-03-03T10:55:07.444Z,8.63
2023-03-03T11:00:22.649Z,7.20
2023-03-03T11:05:37.984Z,8.27
2023-03-03T11:10:53.853Z,8.13
2023-03-03T11:16:14.866Z,8.10
2023-03-03T11:21:25.941Z,6.77
2023-03-03T11:26:46.359Z,7.53
2023-03-03T11:31:55.731Z,6.57
2023-03-03T11:37:08.582Z,7.70
2023-03-03T11:42:23.873Z,7.13
2023-03-03T11:47:32.143Z,6.70
2023-03-03T11:52:45.581Z,7.40
2023-03-03T11:57:53.744Z,6.53
2023-03-03T12:03:15.558Z,7.30
2023-03-03T12:08:30.298Z,7.00
2023-03-03T12:13:48.139Z,7.57
2023-03-03T12:19:04.777Z,5.80
2023-03-03T12:24:29.145Z,6.40
2023-03-03T12:29:46.803Z,6.97
2023-03-03T12:34:55.363Z,5.97
2023-03-03T12:40:07.422Z,5.70
2023-03-03T12:45:25.351Z,6.97
2023-03-03T12:50:48.133Z,5.27
2023-03-03T12:55:54.794Z,5.80
2023-03-03T13:01:08.361Z,4.73
2023-03-03T13:06:20.851Z,5.07
2023-03-03T13:11:43.640Z,6.13
2023-03-03T13:17:00.336Z,6.60
2023-03-03T13:22:12.796Z,5.50
2023-03-03T13:27:20.754Z,5.87
2023-03-03T13:32:37.493Z,5.40
2023-03-03T13:37:45.893Z,5.57
2023-03-03T13:42:54.696Z,5.07
2023-03-03T13:48:09.726Z,4.60
2023-03-03T13:53:34.429Z,4.70
2023-03-03T13:58:50.694Z,4.90
2023-03-03T14:04:06.406Z,5.37
2023-03-03T14:09:26.983Z,5.67
2023-03-03T14:14:45.540Z,5.60
2023-03-03T14:20:03.473Z,6.03
2023-03-03T14:25:09.953Z,8.17
2023-03-03T14:30:34.053Z,10.57
2023-03-03T14:35:41.682Z,6.33
2023-03-03T14:40:46.344Z,6.53
2023-03-03T14:45:49.409Z,7.67
2023-03-03T14:50:58.297Z,6.13
2023-03-03T14:56:18.232Z,7.37
2023-03-03T15:01:32.764Z,5.90
2023-03-03T15:06:42.070Z,8.00
2023-03-03T15:11:48.340Z,6.53
2023-03-03T15:16:51.956Z,8.00
2023-03-03T15:22:02.543Z,8.10
2023-03-03T15:27:12.009Z,6.57
2023-03-03T15:32:22.527Z,8.57
2023-03-03T15:37:42.485Z,9.40
2023-03-03T15:42:50.375Z,7.60
2023-03-03T15:48:08.333Z,8.33
2023-03-03T15:53:35.737Z,8.60
2023-03-03T15:59:00.206Z,8.60
2023-03-03T16:04:07.929Z,10.20
2023-03-03T16:09:25.840Z,12.60
2023-03-03T16:14:45.990Z,10.60
2023-03-03T16:19:57.008Z,14.60
2023-03-03T16:25:30.561Z,15.30
2023-03-03T16:30:38.937Z,13.10
2023-03-03T16:35:50.406Z,19.57
2023-03-03T16:40:57.796Z,15.30
2023-03-03T16:46:06.072Z,16.23
2023-03-03T16:51:18.994Z,18.70
2023-03-03T16:56:29.728Z,22.33
2023-03-03T17:01:43.178Z,19.67
2023-03-03T17:06:51.225Z,21.43
2023-03-03T17:12:04.000Z,21.60
2023-03-03T17:17:15.914Z,19.23
2023-03-03T17:22:27.662Z,22.20
2023-03-03T17:27:44.449Z,16.20
2023-03-03T17:33:15.090Z,17.40
2023-03-03T17:38:28.905Z,17.43
2023-03-03T17:43:40.351Z,20.70
2023-03-03T17:49:11.292Z,18.57
2023-03-03T17:54:26.153Z,20.00
2023-03-03T17:59:43.719Z,18.97
2023-03-03T18:05:06.655Z,20.90
2023-03-03T18:10:41.387Z,22.10
2023-03-03T18:16:12.120Z,19.80
2023-03-03T18:21:17.740Z,24.53
2023-03-03T18:26:36.047Z,23.37
2023-03-03T18:31:51.280Z,23.87
2023-03-03T18:36:55.537Z,18.37
2023-03-03T18:42:12.230Z,18.60
2023-03-03T18:47:17.534Z,16.70
2023-03-03T18:52:27.693Z,15.53
2023-03-03T18:57:30.786Z,18.37
2023-03-03T19:02:46.316Z,17.30
2023-03-03T19:07:58.045Z,15.83
2023-03-03T19:13:01.126Z,15.93
2023-03-03T19:18:14.671Z,16.10
2023-03-03T19:23:20.471Z,15.73
2023-03-03T19:28:38.415Z,17.63
2023-03-03T19:33:54.587Z,16.17
2023-03-03T19:39:22.678Z,14.53
2023-03-03T19:44:40.957Z,16.47
2023-03-03T19:50:07.768Z,15.47
2023-03-03T19:55:25.715Z,14.87
2023-03-03T20:00:36.155Z,15.20
2023-03-03T20:05:47.015Z,16.47
2023-03-03T20:10:58.300Z,15.77
2023-03-03T20:16:11.134Z,14.90
2023-03-03T20:21:27.653Z,15.40
2023-03-03T20:26:35.233Z,16.47
2023-03-03T20:31:47.057Z,15.20
2023-03-03T20:37:01.289Z,16.53
2023-03-03T20:42:16.102Z,15.60
2023-03-03T20:47:31.908Z,15.40
2023-03-03T20:52:43.274Z,17.60
2023-03-03T20:57:54.830Z,17.30
2023-03-03T21:03:10.304Z,16.50
2023-03-03T21:08:14.578Z,17.10
2023-03-03T21:13:29.474Z,18.73
2023-03-03T21:18:32.420Z,17.17
2023-03-03T21:23:36.729Z,19.70
2023-03-03T21:28:39.696Z,19.90
2023-03-03T21:33:48.791Z,19.90
2023-03-03T21:38:54.689Z,18.20
2023-03-03T21:43:57.607Z,18.37
2023-03-03T21:49:00.535Z,18.90
2023-03-03T21:54:05.015Z,21.00
2023-03-03T21:59:08.040Z,21.37
2023-03-03T22:04:11.020Z,21.87
2023-03-03T22:09:15.601Z,20.93
2023-03-03T22:14:18.543Z,22.70
2023-03-03T22:19:21.530Z,20.17
2023-03-03T22:24:25.771Z,20.77
2023-03-03T22:29:29.230Z,22.20
2023-03-03T22:34:32.110Z,23.57
2023-03-03T22:39:36.362Z,20.90
2023-03-03T22:44:39.901Z,25.60
2023-03-03T22:49:42.777Z,20.37
2023-03-03T22:54:47.045Z,22.97
2023-03-03T22:59:49.949Z,21.30
2023-03-03T23:04:58.192Z,20.10
2023-03-03T23:10:03.367Z,25.40
2023-03-03T23:15:13.243Z,24.20
2023-03-03T23:20:18.682Z,20.80
2023-03-03T23:25:24.020Z,20.07
2023-03-03T23:30:27.442Z,18.63
2023-03-03T23:35:30.524Z,18.40
2023-03-03T23:40:34.879Z,20.20
2023-03-03T23:45:37.723Z,17.80
2023-03-03T23:50:40.663Z,16.30
2023-03-03T23:55:45.638Z,17.87
